sensor_id;sensor_type;location;lat;lon;timestamp;P1;P2;P0
74432;PMS7003;62865;53.146;23.172;2022-12-20T00:04:54;31.4;24.6;15
74432;PMS7003;62865;53.146;23.172;2022-12-20T00:09:50;31;24.2;14.8
74432;PMS7003;62865;53.146;23.172;2022-12-20T00:14:26;31.2;22.8;14.8
74432;PMS7003;62865;53.146;23.172;2022-12-20T00:19:58;26;21.6;12.6
74432;PMS7003;62865;53.146;23.172;2022-12-20T00:24:46;28.5;24.3;13.3
74432;PMS7003;62865;53.146;23.172;2022-12-20T00:29:58;27.2;22.8;13
74432;PMS7003;62865;53.146;23.172;2022-12-20T00:34:26;31.2;24.2;13.6
74432;PMS7003;62865;53.146;23.172;2022-12-20T00:40:02;26.4;23.6;13.4
74432;PMS7003;62865;53.146;23.172;2022-12-20T00:44:34;29.2;24.4;14.4
74432;PMS7003;62865;53.146;23.172;2022-12-20T00:49:32;30.8;25.6;15.2
74432;PMS7003;62865;53.146;23.172;2022-12-20T00:55:06;32.2;26.2;14.2
74432;PMS7003;62865;53.146;23.172;2022-12-20T00:59:26;30;24.4;13.8
74432;PMS7003;62865;53.146;23.172;2022-12-20T01:04:32;32;25;14.4
74432;PMS7003;62865;53.146;23.172;2022-12-20T01:09:56;28.8;23.6;13.2
74432;PMS7003;62865;53.146;23.172;2022-12-20T01:14:28;24.2;21.8;13.4
74432;PMS7003;62865;53.146;23.172;2022-12-20T01:19:58;30.4;25.6;15.6
74432;PMS7003;62865;53.146;23.172;2022-12-20T01:24:34;27.2;23.8;12.8
74432;PMS7003;62865;53.146;23.172;2022-12-20T01:30:00;25.2;22.8;13.4
74432;PMS7003;62865;53.146;23.172;2022-12-20T01:34:26;26.6;23.2;14
74432;PMS7003;62865;53.146;23.172;2022-12-20T01:39:26;26.4;21.2;12.2
74432;PMS7003;62865;53.146;23.172;2022-12-20T01:44:51;27.2;24.8;13.8
74432;PMS7003;62865;53.146;23.172;2022-12-20T01:49:44;27;22.6;13.8
74432;PMS7003;62865;53.146;23.172;2022-12-20T01:54:47;29.6;24.4;15
74432;PMS7003;62865;53.146;23.172;2022-12-20T02:00:02;29.8;23.2;14.6
74432;PMS7003;62865;53.146;23.172;2022-12-20T02:04:58;23.8;20;12
74432;PMS7003;62865;53.146;23.172;2022-12-20T02:10:10;27.4;22;13.2
74432;PMS7003;62865;53.146;23.172;2022-12-20T02:14:55;27.4;22;13.2
74432;PMS7003;62865;53.146;23.172;2022-12-20T02:20:10;24.8;21;13
74432;PMS7003;62865;53.146;23.172;2022-12-20T02:24:46;27.8;24;14.2
74432;PMS7003;62865;53.146;23.172;2022-12-20T02:29:28;27;22.8;12.8
74432;PMS7003;62865;53.146;23.172;2022-12-20T02:35:13;24.6;20.8;12.4
74432;PMS7003;62865;53.146;23.172;2022-12-20T02:39:39;24.6;20.8;12.4
74432;PMS7003;62865;53.146;23.172;2022-12-20T02:44:26;29.2;25.4;15.2
74432;PMS7003;62865;53.146;23.172;2022-12-20T02:50:04;30.8;23.4;14.4
74432;PMS7003;62865;53.146;23.172;2022-12-20T02:54:36;31;24.2;14.6
74432;PMS7003;62865;53.146;23.172;2022-12-20T03:00:12;28.6;22.6;15.8
74432;PMS7003;62865;53.146;23.172;2022-12-20T03:04:26;28.6;22.6;15.8
74432;PMS7003;62865;53.146;23.172;2022-12-20T03:10:02;29;23;13.2
74432;PMS7003;62865;53.146;23.172;2022-12-20T03:15:04;31;24.8;15.2
74432;PMS7003;62865;53.146;23.172;2022-12-20T03:19:36;29.8;22.6;13.8
74432;PMS7003;62865;53.146;23.172;2022-12-20T03:25:10;28.2;25.2;15
74432;PMS7003;62865;53.146;23.172;2022-12-20T03:29:44;28.2;25.2;15
74432;PMS7003;62865;53.146;23.172;2022-12-20T03:34:36;33;25.8;13.4
74432;PMS7003;62865;53.146;23.172;2022-12-20T03:40:04;24.4;20.8;12.8
74432;PMS7003;62865;53.146;23.172;2022-12-20T03:44:58;25.8;21.8;12.8
74432;PMS7003;62865;53.146;23.172;2022-12-20T03:50:11;26.6;22.6;14
74432;PMS7003;62865;53.146;23.172;2022-12-20T03:54:50;26.6;22.6;14
74432;PMS7003;62865;53.146;23.172;2022-12-20T04:00:04;27.2;24.2;15.4
74432;PMS7003;62865;53.146;23.172;2022-12-20T04:04:36;29;22.2;13.8
74432;PMS7003;62865;53.146;23.172;2022-12-20T04:09:26;30.2;24.2;15.4
74432;PMS7003;62865;53.146;23.172;2022-12-20T04:15:12;30.3;23.3;15.3
74432;PMS7003;62865;53.146;23.172;2022-12-20T04:19:44;30.3;23.3;15.3
74432;PMS7003;62865;53.146;23.172;2022-12-20T04:24:26;31.5;25;14.5
74432;PMS7003;62865;53.146;23.172;2022-12-20T04:30:02;32;25;15
74432;PMS7003;62865;53.146;23.172;2022-12-20T04:34:56;26.3;24;14
74432;PMS7003;62865;53.146;23.172;2022-12-20T04:40:12;25.6;21.8;13.2
74432;PMS7003;62865;53.146;23.172;2022-12-20T04:44:26;25.6;21.8;13.2
74432;PMS7003;62865;53.146;23.172;2022-12-20T04:50:02;23;20.4;11.6
74432;PMS7003;62865;53.146;23.172;2022-12-20T04:54:56;20.4;17.4;11
74432;PMS7003;62865;53.146;23.172;2022-12-20T04:59:26;26;23.2;14
74432;PMS7003;62865;53.146;23.172;2022-12-20T05:05:12;23.8;18.3;12.3
74432;PMS7003;62865;53.146;23.172;2022-12-20T05:09:46;23.8;18.3;12.3
74432;PMS7003;62865;53.146;23.172;2022-12-20T05:14:36;26.4;21.8;11.8
74432;PMS7003;62865;53.146;23.172;2022-12-20T05:19:36;19.2;16.4;11
74432;PMS7003;62865;53.146;23.172;2022-12-20T05:24:56;21.5;17.3;11.3
74432;PMS7003;62865;53.146;23.172;2022-12-20T05:30:10;24.3;20;12.7
74432;PMS7003;62865;53.146;23.172;2022-12-20T05:34:38;24.3;20;12.7
74432;PMS7003;62865;53.146;23.172;2022-12-20T05:40:02;26;21.5;11.5
74432;PMS7003;62865;53.146;23.172;2022-12-20T05:44:56;22.3;19.8;12.3
74432;PMS7003;62865;53.146;23.172;2022-12-20T05:49:26;20.8;17.2;11.4
74432;PMS7003;62865;53.146;23.172;2022-12-20T05:55:08;17;14.4;9.2
74432;PMS7003;62865;53.146;23.172;2022-12-20T05:59:26;18;15.6;10.2
74432;PMS7003;62865;53.146;23.172;2022-12-20T06:04:48;19.4;15.4;9.4
74432;PMS7003;62865;53.146;23.172;2022-12-20T06:09:36;19.7;17.7;10.7
74432;PMS7003;62865;53.146;23.172;2022-12-20T06:14:48;23;18;11
74432;PMS7003;62865;53.146;23.172;2022-12-20T06:20:10;20.2;17.4;11.6
74432;PMS7003;62865;53.146;23.172;2022-12-20T06:24:50;20.2;17.4;11.6
74432;PMS7003;62865;53.146;23.172;2022-12-20T06:30:02;22.3;20.3;12.5
74432;PMS7003;62865;53.146;23.172;2022-12-20T06:34:49;26;22;12.8
74432;PMS7003;62865;53.146;23.172;2022-12-20T06:39:44;25.4;22;13.6
74432;PMS7003;62865;53.146;23.172;2022-12-20T06:45:12;24.8;21.8;11.8
74432;PMS7003;62865;53.146;23.172;2022-12-20T06:49:46;24.8;21.8;11.8
74432;PMS7003;62865;53.146;23.172;2022-12-20T06:54:36;26.8;22.8;15.8
74432;PMS7003;62865;53.146;23.172;2022-12-20T06:59:44;28.3;25.7;14
74432;PMS7003;62865;53.146;23.172;2022-12-20T07:04:58;33.7;29.3;16
74432;PMS7003;62865;53.146;23.172;2022-12-20T07:10:10;34.3;30.3;17
74432;PMS7003;62865;53.146;23.172;2022-12-20T07:14:40;34.3;30.3;17
74432;PMS7003;62865;53.146;23.172;2022-12-20T07:20:02;40.7;32;19
74432;PMS7003;62865;53.146;23.172;2022-12-20T07:24:36;40;36;20
74432;PMS7003;62865;53.146;23.172;2022-12-20T07:29:36;45;32;18
74432;PMS7003;62865;53.146;23.172;2022-12-20T07:35:12;39.3;34.3;20.3
74432;PMS7003;62865;53.146;23.172;2022-12-20T07:39:46;39.3;34.3;20.3
74432;PMS7003;62865;53.146;23.172;2022-12-20T07:44:26;39.8;35.3;20
74432;PMS7003;62865;53.146;23.172;2022-12-20T07:49:26;32.5;27.8;17.3
74432;PMS7003;62865;53.146;23.172;2022-12-20T07:54:57;38.5;32.5;19.5
74432;PMS7003;62865;53.146;23.172;2022-12-20T08:00:12;39.8;28;15.8
74432;PMS7003;62865;53.146;23.172;2022-12-20T08:04:26;39.8;28;15.8
74432;PMS7003;62865;53.146;23.172;2022-12-20T08:09:58;37;31.3;19.3
74432;PMS7003;62865;53.146;23.172;2022-12-20T08:14:58;36.4;31.2;17.8
74432;PMS7003;62865;53.146;23.172;2022-12-20T08:19:28;42.3;34.8;20.8
74432;PMS7003;62865;53.146;23.172;2022-12-20T08:24:52;37;30;18.8
74432;PMS7003;62865;53.146;23.172;2022-12-20T08:29:44;42.8;35;21
74432;PMS7003;62865;53.146;23.172;2022-12-20T08:35:10;44.5;36.5;20.5
74432;PMS7003;62865;53.146;23.172;2022-12-20T08:39:34;44.5;36.5;20.5
74432;PMS7003;62865;53.146;23.172;2022-12-20T08:44:48;48;38;22.5
74432;PMS7003;62865;53.146;23.172;2022-12-20T08:50:08;40.3;32.3;19.3
74432;PMS7003;62865;53.146;23.172;2022-12-20T08:54:36;41;34.5;21.5
74432;PMS7003;62865;53.146;23.172;2022-12-20T09:00:10;38.3;32;19.7
74432;PMS7003;62865;53.146;23.172;2022-12-20T09:05:00;38.3;32;19.7
74432;PMS7003;62865;53.146;23.172;2022-12-20T09:10:02;51;36.5;22.5
74432;PMS7003;62865;53.146;23.172;2022-12-20T09:14:50;40.5;36.5;23
74432;PMS7003;62865;53.146;23.172;2022-12-20T09:19:44;43;36;23
74432;PMS7003;62865;53.146;23.172;2022-12-20T09:25:08;46.3;35.5;20
74432;PMS7003;62865;53.146;23.172;2022-12-20T09:29:26;43;30.7;18.3
74432;PMS7003;62865;53.146;23.172;2022-12-20T09:34:50;42.8;35;20
74432;PMS7003;62865;53.146;23.172;2022-12-20T09:39:50;45;37;20
74432;PMS7003;62865;53.146;23.172;2022-12-20T09:44:57;39.7;32.3;18.3
74432;PMS7003;62865;53.146;23.172;2022-12-20T09:50:12;40.5;33.5;18.5
74432;PMS7003;62865;53.146;23.172;2022-12-20T09:54:53;40.5;33.5;18.5
74432;PMS7003;62865;53.146;23.172;2022-12-20T10:00:07;45.7;35.7;21
74432;PMS7003;62865;53.146;23.172;2022-12-20T10:05:02;41.5;34;19.5
74432;PMS7003;62865;53.146;23.172;2022-12-20T10:09:58;40;38;21
74432;PMS7003;62865;53.146;23.172;2022-12-20T10:15:15;36.8;31.8;19.8
74432;PMS7003;62865;53.146;23.172;2022-12-20T10:19:48;36.8;31.8;19.8
74432;PMS7003;62865;53.146;23.172;2022-12-20T10:24:55;32;29;20
74432;PMS7003;62865;53.146;23.172;2022-12-20T10:29:28;41.3;36.8;21.5
74432;PMS7003;62865;53.146;23.172;2022-12-20T10:34:36;42.8;35.2;19.8
74432;PMS7003;62865;53.146;23.172;2022-12-20T10:40:11;42;34.3;21.5
74432;PMS7003;62865;53.146;23.172;2022-12-20T10:45:00;41.8;35;20
74432;PMS7003;62865;53.146;23.172;2022-12-20T10:50:12;44;36;21.3
74432;PMS7003;62865;53.146;23.172;2022-12-20T10:54:50;49;38.7;22.7
74432;PMS7003;62865;53.146;23.172;2022-12-20T10:59:28;35.8;29.4;18
74432;PMS7003;62865;53.146;23.172;2022-12-20T11:05:18;42.2;32.6;20
74432;PMS7003;62865;53.146;23.172;2022-12-20T11:09:35;42.2;32.6;20
74432;PMS7003;62865;53.146;23.172;2022-12-20T11:14:48;44;35.6;21
74432;PMS7003;62865;53.146;23.172;2022-12-20T11:20:05;41.2;35.2;22
74432;PMS7003;62865;53.146;23.172;2022-12-20T11:24:28;41.4;33;20
74432;PMS7003;62865;53.146;23.172;2022-12-20T11:30:11;43;36.5;21.5
74432;PMS7003;62865;53.146;23.172;2022-12-20T11:35:00;44;38.5;22
74432;PMS7003;62865;53.146;23.172;2022-12-20T11:40:02;43.5;36.3;21.5
74432;PMS7003;62865;53.146;23.172;2022-12-20T11:45:02;41;36.7;21.3
74432;PMS7003;62865;53.146;23.172;2022-12-20T11:49:46;39;33.3;19.7
74432;PMS7003;62865;53.146;23.172;2022-12-20T11:55:13;38.8;32.5;19.3
74432;PMS7003;62865;53.146;23.172;2022-12-20T11:59:46;40.2;33.4;19.8
74432;PMS7003;62865;53.146;23.172;2022-12-20T12:04:52;41.7;34.7;21.7
74432;PMS7003;62865;53.146;23.172;2022-12-20T12:10:01;36;32.4;20
74432;PMS7003;62865;53.146;23.172;2022-12-20T12:14:41;37.4;33;20.8
74432;PMS7003;62865;53.146;23.172;2022-12-20T12:20:19;34.8;28.5;18.3
74432;PMS7003;62865;53.146;23.172;2022-12-20T12:25:03;34.8;28.5;18.3
74432;PMS7003;62865;53.146;23.172;2022-12-20T12:30:11;39;34.3;20.3
74432;PMS7003;62865;53.146;23.172;2022-12-20T12:34:54;39;34.3;20.3
74432;PMS7003;62865;53.146;23.172;2022-12-20T12:39:51;45.5;36;21.5
74432;PMS7003;62865;53.146;23.172;2022-12-20T12:45:08;43.8;34.8;20.6
74432;PMS7003;62865;53.146;23.172;2022-12-20T12:49:34;42.5;33.8;20.5
74432;PMS7003;62865;53.146;23.172;2022-12-20T12:54:48;41.7;35.7;20
74432;PMS7003;62865;53.146;23.172;2022-12-20T12:59:44;41.3;34.8;20.5
74432;PMS7003;62865;53.146;23.172;2022-12-20T13:04:51;43.7;37;21.3
74432;PMS7003;62865;53.146;23.172;2022-12-20T13:14:58;36.5;32.5;20
74432;PMS7003;62865;53.146;23.172;2022-12-20T13:20:00;41.2;34;20.6
74432;PMS7003;62865;53.146;23.172;2022-12-20T13:24:35;41.8;35.4;20.6
74432;PMS7003;62865;53.146;23.172;2022-12-20T13:30:14;39.7;32;20.7
74432;PMS7003;62865;53.146;23.172;2022-12-20T13:35:10;35.5;30.8;17
74432;PMS7003;62865;53.146;23.172;2022-12-20T13:39:29;44;36.3;21.3
74432;PMS7003;62865;53.146;23.172;2022-12-20T13:44:48;40.8;35;21
74432;PMS7003;62865;53.146;23.172;2022-12-20T13:49:44;44.5;36.8;22.8
74432;PMS7003;62865;53.146;23.172;2022-12-20T13:54:26;44.5;38.5;22
74432;PMS7003;62865;53.146;23.172;2022-12-20T14:00:13;44.5;34.5;19.5
74432;PMS7003;62865;53.146;23.172;2022-12-20T14:05:00;44;35.4;21.6
74432;PMS7003;62865;53.146;23.172;2022-12-20T14:09:59;42.3;35;20.5
74432;PMS7003;62865;53.146;23.172;2022-12-20T14:14:36;48;37.5;22
74432;PMS7003;62865;53.146;23.172;2022-12-20T14:20:06;47.7;35.7;23.3
74432;PMS7003;62865;53.146;23.172;2022-12-20T14:25:08;55;42;24
74432;PMS7003;62865;53.146;23.172;2022-12-20T14:29:36;49;40;23
74432;PMS7003;62865;53.146;23.172;2022-12-20T14:35:00;42.5;36.5;21.5
74432;PMS7003;62865;53.146;23.172;2022-12-20T14:39:27;48;38.5;22.5
74432;PMS7003;62865;53.146;23.172;2022-12-20T14:44:27;46.5;38.5;22.5
74432;PMS7003;62865;53.146;23.172;2022-12-20T14:50:15;44;34.8;21
74432;PMS7003;62865;53.146;23.172;2022-12-20T14:55:01;43.5;38;22
74432;PMS7003;62865;53.146;23.172;2022-12-20T15:00:09;46;38.2;23.6
74432;PMS7003;62865;53.146;23.172;2022-12-20T15:04:36;44.4;38;23.4
74432;PMS7003;62865;53.146;23.172;2022-12-20T15:09:26;48;39.3;23.3
74432;PMS7003;62865;53.146;23.172;2022-12-20T15:15:11;50.6;40.2;23.6
74432;PMS7003;62865;53.146;23.172;2022-12-20T15:19:26;50.6;40.2;23.6
74432;PMS7003;62865;53.146;23.172;2022-12-20T15:24:50;50.8;41;24.3
74432;PMS7003;62865;53.146;23.172;2022-12-20T15:29:48;45.3;36.5;22.5
74432;PMS7003;62865;53.146;23.172;2022-12-20T15:34:38;45;36.6;22
74432;PMS7003;62865;53.146;23.172;2022-12-20T15:40:12;44.6;36.8;22.2
74432;PMS7003;62865;53.146;23.172;2022-12-20T15:44:44;44.6;36.8;22.2
74432;PMS7003;62865;53.146;23.172;2022-12-20T15:49:48;45.8;38;22.4
74432;PMS7003;62865;53.146;23.172;2022-12-20T15:54:36;44.2;37.6;22.2
74432;PMS7003;62865;53.146;23.172;2022-12-20T15:59:44;48.8;37.3;22.3
74432;PMS7003;62865;53.146;23.172;2022-12-20T16:05:09;45.2;38.6;22.8
74432;PMS7003;62865;53.146;23.172;2022-12-20T16:09:26;49.8;40.6;24.2
74432;PMS7003;62865;53.146;23.172;2022-12-20T16:14:52;49.6;37.6;23.6
74432;PMS7003;62865;53.146;23.172;2022-12-20T16:19:46;49.6;39.2;22.6
74432;PMS7003;62865;53.146;23.172;2022-12-20T16:24:36;48.8;39.2;23.8
74432;PMS7003;62865;53.146;23.172;2022-12-20T16:30:10;46.3;38.3;23.3
74432;PMS7003;62865;53.146;23.172;2022-12-20T16:35:02;46.3;38.3;23.3
74432;PMS7003;62865;53.146;23.172;2022-12-20T16:40:02;52.3;40;25
74432;PMS7003;62865;53.146;23.172;2022-12-20T16:44:26;49.8;39;23.3
74432;PMS7003;62865;53.146;23.172;2022-12-20T16:49:26;44;37.5;23.5
74432;PMS7003;62865;53.146;23.172;2022-12-20T16:55:12;60;46.3;27.3
74432;PMS7003;62865;53.146;23.172;2022-12-20T16:59:40;60;46.3;27.3
74432;PMS7003;62865;53.146;23.172;2022-12-20T17:04:54;64;46;28
74432;PMS7003;62865;53.146;23.172;2022-12-20T17:09:26;58.8;45.3;26
74432;PMS7003;62865;53.146;23.172;2022-12-20T17:14:38;53;42.5;26.5
74432;PMS7003;62865;53.146;23.172;2022-12-20T17:20:00;57.7;43.7;26.7
74432;PMS7003;62865;53.146;23.172;2022-12-20T17:24:58;53.8;42.5;25.5
74432;PMS7003;62865;53.146;23.172;2022-12-20T17:29:48;57.7;45;27.3
74432;PMS7003;62865;53.146;23.172;2022-12-20T17:34:38;53.5;43;26
74432;PMS7003;62865;53.146;23.172;2022-12-20T17:39:50;57.7;43;26.3
74432;PMS7003;62865;53.146;23.172;2022-12-20T17:45:18;56.6;43.4;25.8
74432;PMS7003;62865;53.146;23.172;2022-12-20T17:49:50;56.6;43.4;25.8
74432;PMS7003;62865;53.146;23.172;2022-12-20T17:54:51;56;45;27
74432;PMS7003;62865;53.146;23.172;2022-12-20T18:00:09;56.3;43.8;25.5
74432;PMS7003;62865;53.146;23.172;2022-12-20T18:05:09;59.3;45.7;27.3
74432;PMS7003;62865;53.146;23.172;2022-12-20T18:09:56;60.3;45.3;27.3
74432;PMS7003;62865;53.146;23.172;2022-12-20T18:14:50;55;44.5;27.5
74432;PMS7003;62865;53.146;23.172;2022-12-20T18:19:36;56.3;45;26.3
74432;PMS7003;62865;53.146;23.172;2022-12-20T18:24:26;55.7;41.7;27.3
74432;PMS7003;62865;53.146;23.172;2022-12-20T18:29:56;58.8;47;27.3
74432;PMS7003;62865;53.146;23.172;2022-12-20T18:35:07;54.3;43.3;26
74432;PMS7003;62865;53.146;23.172;2022-12-20T18:39:36;58.8;46.3;26.8
74432;PMS7003;62865;53.146;23.172;2022-12-20T18:44:48;51.7;43;26.7
74432;PMS7003;62865;53.146;23.172;2022-12-20T18:50:08;59;45.3;26.7
74432;PMS7003;62865;53.146;23.172;2022-12-20T18:55:06;51;42.5;26
74432;PMS7003;62865;53.146;23.172;2022-12-20T18:59:58;52;39.8;25
74432;PMS7003;62865;53.146;23.172;2022-12-20T19:04:58;45.3;37.8;22.5
74432;PMS7003;62865;53.146;23.172;2022-12-20T19:09:48;49;40.5;24.5
74432;PMS7003;62865;53.146;23.172;2022-12-20T19:14:26;53.8;39.8;24.4
74432;PMS7003;62865;53.146;23.172;2022-12-20T19:19:56;45.4;38.8;23.2
74432;PMS7003;62865;53.146;23.172;2022-12-20T19:25:06;47.8;38.6;23.8
74432;PMS7003;62865;53.146;23.172;2022-12-20T19:29:36;48.4;39;24.2
74432;PMS7003;62865;53.146;23.172;2022-12-20T19:34:48;48;38.4;23.6
74432;PMS7003;62865;53.146;23.172;2022-12-20T19:40:05;51;40.2;25
74432;PMS7003;62865;53.146;23.172;2022-12-20T19:45:08;50.8;40;23.8
74432;PMS7003;62865;53.146;23.172;2022-12-20T19:49:58;48.6;37.8;22.8
74432;PMS7003;62865;53.146;23.172;2022-12-20T19:54:56;49.6;40.4;24.6
74432;PMS7003;62865;53.146;23.172;2022-12-20T19:59:26;49.8;39.8;23.6
74432;PMS7003;62865;53.146;23.172;2022-12-20T20:04:26;49.8;39.6;23.6
74432;PMS7003;62865;53.146;23.172;2022-12-20T20:09:48;50.6;40.8;24.8
74432;PMS7003;62865;53.146;23.172;2022-12-20T20:15:06;51.2;41.6;25.8
74432;PMS7003;62865;53.146;23.172;2022-12-20T20:19:26;54;42.4;26.4
74432;PMS7003;62865;53.146;23.172;2022-12-20T20:24:50;57.8;44.5;26.5
74432;PMS7003;62865;53.146;23.172;2022-12-20T20:30:11;54.8;44.4;25.6
74432;PMS7003;62865;53.146;23.172;2022-12-20T20:35:10;49.3;40.8;25.8
74432;PMS7003;62865;53.146;23.172;2022-12-20T20:39:54;49.3;40.8;25.8
74432;PMS7003;62865;53.146;23.172;2022-12-20T20:44:56;55.8;44;26.2
74432;PMS7003;62865;53.146;23.172;2022-12-20T20:49:48;52.8;41.6;25.4
74432;PMS7003;62865;53.146;23.172;2022-12-20T20:54:26;52.2;42.2;25.2
74432;PMS7003;62865;53.146;23.172;2022-12-20T21:00:00;53.6;41;24
74432;PMS7003;62865;53.146;23.172;2022-12-20T21:05:10;51.4;40.4;24.6
74432;PMS7003;62865;53.146;23.172;2022-12-20T21:09:48;51.4;40.4;24.6
74432;PMS7003;62865;53.146;23.172;2022-12-20T21:14:50;49.2;39;24
74432;PMS7003;62865;53.146;23.172;2022-12-20T21:20:11;50.7;40.7;24.7
74432;PMS7003;62865;53.146;23.172;2022-12-20T21:24:56;50.7;40.7;24.7
74432;PMS7003;62865;53.146;23.172;2022-12-20T21:29:58;52;41.7;25.7
74432;PMS7003;62865;53.146;23.172;2022-12-20T21:34:56;56.5;42;25
74432;PMS7003;62865;53.146;23.172;2022-12-20T21:39:26;51.4;40.2;24.6
74432;PMS7003;62865;53.146;23.172;2022-12-20T21:44:36;52.8;42.2;26
74432;PMS7003;62865;53.146;23.172;2022-12-20T21:50:05;51.8;40;23.4
74432;PMS7003;62865;53.146;23.172;2022-12-20T21:55:04;51.2;41;25.4
74432;PMS7003;62865;53.146;23.172;2022-12-20T21:59:26;54.3;43.3;25
74432;PMS7003;62865;53.146;23.172;2022-12-20T22:04:32;57;44.5;25.5
74432;PMS7003;62865;53.146;23.172;2022-12-20T22:09:52;55;44;25
74432;PMS7003;62865;53.146;23.172;2022-12-20T22:14:54;55;43;25
74432;PMS7003;62865;53.146;23.172;2022-12-20T22:19:26;56;45;26
74432;PMS7003;62865;53.146;23.172;2022-12-20T22:25:06;52;41.3;25
74432;PMS7003;62865;53.146;23.172;2022-12-20T22:29:44;53.3;41.3;25.3
74432;PMS7003;62865;53.146;23.172;2022-12-20T22:34:34;51.4;41;24.6
74432;PMS7003;62865;53.146;23.172;2022-12-20T22:40:02;52;40.8;24.8
74432;PMS7003;62865;53.146;23.172;2022-12-20T22:45:05;48.8;38.3;22.8
74432;PMS7003;62865;53.146;23.172;2022-12-20T22:49:56;50;39;23
74432;PMS7003;62865;53.146;23.172;2022-12-20T22:54:46;53.3;41;24
74432;PMS7003;62865;53.146;23.172;2022-12-20T22:59:52;52.3;41.5;25.8
74432;PMS7003;62865;53.146;23.172;2022-12-20T23:04:36;45.7;38.7;23.3
74432;PMS7003;62865;53.146;23.172;2022-12-20T23:09:26;50.3;41.3;24.3
74432;PMS7003;62865;53.146;23.172;2022-12-20T23:15:07;50.4;40.4;23.4
74432;PMS7003;62865;53.146;23.172;2022-12-20T23:19:46;54;40;24
74432;PMS7003;62865;53.146;23.172;2022-12-20T23:24:32;53.3;41;24.7
74432;PMS7003;62865;53.146;23.172;2022-12-20T23:30:05;56.7;43.7;26.7
74432;PMS7003;62865;53.146;23.172;2022-12-20T23:35:06;56.7;43.7;26.7
74432;PMS7003;62865;53.146;23.172;2022-12-20T23:39:26;54;41.5;24.5
74432;PMS7003;62865;53.146;23.172;2022-12-20T23:44:44;50;42;23.5
74432;PMS7003;62865;53.146;23.172;2022-12-20T23:49:54;49;39.3;22.3
74432;PMS7003;62865;53.146;23.172;2022-12-20T23:54:54;49.3;40.3;24.5
74432;PMS7003;62865;53.146;23.172;2022-12-20T23:59:34;57;42;24
